Terminal Aerodrome Forecast
Issued by NWS

Home | Current Version | Previous Version | Text Only | Print | Product List | Glossary On
Versions: 1 2 3 4 5 6 7 8 9 10 11 12 13 14 15
000
FTUS46 KMTR 230900 AAA
TAFSNS
TAF AMD
KSNS 230910Z 2309/2406 29003KT P6SM SKC
     FM231200 VRB04KT P6SM BKN005
     FM231900 26004KT P6SM FEW008 SCT250
     FM232100 28012KT P6SM SCT250
     FM240200 28005KT P6SM BKN015=

USA.gov is the U.S. government's official web portal to all federal, state and local government web resources and services.